createdAt,value
2023-05-05T00:00:37.764Z,2.85
2023-05-05T00:03:41.649Z,2.08
2023-05-05T00:06:44.289Z,2.80
2023-05-05T00:09:47.129Z,2.55
2023-05-05T00:12:50.049Z,2.80
2023-05-05T00:15:53.706Z,2.70
2023-05-05T00:18:56.493Z,3.00
2023-05-05T00:21:59.339Z,2.95
2023-05-05T00:25:01.917Z,3.00
2023-05-05T00:28:05.056Z,2.70
2023-05-05T00:31:07.770Z,2.80
2023-05-05T00:34:11.101Z,2.78
2023-05-05T00:37:14.623Z,2.90
2023-05-05T00:40:18.735Z,3.00
2023-05-05T00:43:21.314Z,2.92
2023-05-05T00:46:26.471Z,3.10
2023-05-05T00:49:29.673Z,3.08
2023-05-05T00:52:32.719Z,2.78
2023-05-05T00:55:35.519Z,2.75
2023-05-05T00:58:42.026Z,2.70
2023-05-05T01:01:45.769Z,2.97
2023-05-05T01:04:48.944Z,3.17
2023-05-05T01:08:10.027Z,3.17
2023-05-05T01:11:44.455Z,2.90
2023-05-05T01:15:07.460Z,3.22
2023-05-05T01:18:23.387Z,3.05
2023-05-05T01:21:33.694Z,3.15
2023-05-05T01:27:52.234Z,3.20
2023-05-05T01:31:01.433Z,2.90
2023-05-05T01:34:07.673Z,3.65
2023-05-05T01:37:18.268Z,3.55
2023-05-05T01:40:26.806Z,3.37
2023-05-05T01:43:33.645Z,4.12
2023-05-05T01:46:37.015Z,3.33
2023-05-05T01:49:42.140Z,3.30
2023-05-05T01:52:46.669Z,3.58
2023-05-05T01:55:50.600Z,3.53
2023-05-05T01:58:55.923Z,3.58
2023-05-05T02:02:02.835Z,3.20
2023-05-05T02:05:06.949Z,3.35
2023-05-05T02:08:11.491Z,3.00
2023-05-05T02:11:16.411Z,2.97
2023-05-05T02:14:21.571Z,3.25
2023-05-05T02:17:26.072Z,3.80
2023-05-05T02:20:31.864Z,3.37
2023-05-05T02:23:36.325Z,3.50
2023-05-05T02:26:40.727Z,3.67
2023-05-05T02:29:54.264Z,3.10
2023-05-05T02:33:05.648Z,3.75
2023-05-05T02:36:17.463Z,3.35
2023-05-05T02:39:30.708Z,3.53
2023-05-05T02:42:40.971Z,3.75
2023-05-05T02:45:45.171Z,3.80
2023-05-05T02:48:48.668Z,3.17
2023-05-05T02:51:51.520Z,4.07
2023-05-05T02:54:54.913Z,3.47
2023-05-05T02:58:05.298Z,3.80
2023-05-05T03:01:17.091Z,3.90
2023-05-05T03:04:31.957Z,4.20
2023-05-05T03:07:40.671Z,3.85
2023-05-05T03:10:48.161Z,4.00
2023-05-05T03:14:01.133Z,3.90
2023-05-05T03:17:05.463Z,4.18
2023-05-05T03:20:11.164Z,4.35
2023-05-05T03:23:14.758Z,3.92
2023-05-05T03:26:18.719Z,4.35
2023-05-05T03:29:22.230Z,4.03
2023-05-05T03:32:25.927Z,4.57
2023-05-05T03:35:28.852Z,5.07
2023-05-05T03:38:31.915Z,4.47
2023-05-05T03:41:34.596Z,3.95
2023-05-05T03:44:38.239Z,4.12
2023-05-05T03:47:41.108Z,4.12
2023-05-05T03:50:46.858Z,4.60
2023-05-05T03:53:49.918Z,4.97
2023-05-05T03:56:52.738Z,4.85
2023-05-05T03:59:55.660Z,4.72
2023-05-05T04:02:58.641Z,4.53
2023-05-05T04:06:01.739Z,4.60
2023-05-05T04:09:05.720Z,4.43
2023-05-05T04:12:08.891Z,4.53
2023-05-05T04:15:11.773Z,4.20
2023-05-05T04:18:15.747Z,5.10
2023-05-05T04:21:18.600Z,4.60
2023-05-05T04:24:24.775Z,4.00
2023-05-05T04:27:30.015Z,4.43
2023-05-05T04:30:33.278Z,4.70
2023-05-05T04:33:36.031Z,4.40
2023-05-05T04:36:39.141Z,4.30
2023-05-05T04:39:42.065Z,4.18
2023-05-05T04:42:45.053Z,4.40
2023-05-05T04:45:54.998Z,4.70
2023-05-05T04:48:59.171Z,4.60
2023-05-05T04:52:01.985Z,4.90
2023-05-05T04:55:05.477Z,4.82
2023-05-05T04:58:08.881Z,4.72
2023-05-05T05:01:11.758Z,4.12
2023-05-05T05:04:18.363Z,4.35
2023-05-05T05:07:21.303Z,4.50
2023-05-05T05:10:23.805Z,4.53
2023-05-05T05:13:26.725Z,4.72
2023-05-05T05:16:29.292Z,5.05
2023-05-05T05:19:32.505Z,4.47
2023-05-05T05:22:38.315Z,4.47
2023-05-05T05:25:42.560Z,4.90
2023-05-05T05:28:45.175Z,4.65
2023-05-05T05:31:48.279Z,4.12
2023-05-05T05:34:51.050Z,4.15
2023-05-05T05:37:53.855Z,4.22
2023-05-05T05:40:56.547Z,4.03
2023-05-05T05:44:00.044Z,4.37
2023-05-05T05:47:03.780Z,4.57
2023-05-05T05:50:07.850Z,4.28
2023-05-05T05:53:11.211Z,4.20
2023-05-05T05:56:14.186Z,4.20
2023-05-05T05:59:16.890Z,3.87
2023-05-05T06:02:21.006Z,3.83
2023-05-05T06:05:24.014Z,4.25
2023-05-05T06:08:26.963Z,3.87
2023-05-05T06:11:30.215Z,4.32
2023-05-05T06:14:32.906Z,3.45
2023-05-05T06:17:35.857Z,3.42
2023-05-05T06:20:38.509Z,4.25
2023-05-05T06:23:42.289Z,4.30
2023-05-05T06:26:45.001Z,3.90
2023-05-05T06:29:47.930Z,3.70
2023-05-05T06:32:50.508Z,3.37
2023-05-05T06:35:53.388Z,3.85
2023-05-05T06:38:56.207Z,3.17
2023-05-05T06:41:59.077Z,3.33
2023-05-05T06:45:02.329Z,2.80
2023-05-05T06:48:05.506Z,3.20
2023-05-05T06:51:09.630Z,3.28
2023-05-05T06:54:12.423Z,2.97
2023-05-05T06:57:14.972Z,3.40
2023-05-05T07:00:18.711Z,3.12
2023-05-05T07:03:21.669Z,4.40
2023-05-05T07:06:24.551Z,3.22
2023-05-05T07:09:27.506Z,3.65
2023-05-05T07:12:33.406Z,3.30
2023-05-05T07:15:36.128Z,3.10
2023-05-05T07:18:39.195Z,2.65
2023-05-05T07:21:41.873Z,3.53
2023-05-05T07:24:45.501Z,3.15
2023-05-05T07:27:48.213Z,3.17
2023-05-05T07:30:52.070Z,3.47
2023-05-05T07:33:54.902Z,2.95
2023-05-05T07:36:57.838Z,3.83
2023-05-05T07:40:00.951Z,3.00
2023-05-05T07:43:04.790Z,3.37
2023-05-05T07:46:07.927Z,2.92
2023-05-05T07:49:11.073Z,7.60
2023-05-05T07:52:13.837Z,2.90
2023-05-05T07:55:16.941Z,2.95
2023-05-05T07:58:19.420Z,3.47
2023-05-05T08:01:22.682Z,3.35
2023-05-05T08:04:25.609Z,2.97
2023-05-05T08:07:28.352Z,2.97
2023-05-05T08:10:31.143Z,3.20
2023-05-05T08:13:34.606Z,3.42
2023-05-05T08:16:37.591Z,3.35
2023-05-05T08:19:40.865Z,3.10
2023-05-05T08:22:43.955Z,3.70
2023-05-05T08:25:46.593Z,4.00
2023-05-05T08:28:49.785Z,3.55
2023-05-05T08:31:52.395Z,3.97
2023-05-05T08:34:55.434Z,3.42
2023-05-05T08:37:59.218Z,3.70
2023-05-05T08:41:02.571Z,3.30
2023-05-05T08:44:05.282Z,3.05
2023-05-05T08:47:11.379Z,2.95
2023-05-05T08:50:14.387Z,3.78
2023-05-05T08:53:21.956Z,3.30
2023-05-05T08:56:37.270Z,3.60
2023-05-05T08:59:41.481Z,3.30
2023-05-05T09:02:46.073Z,3.62
2023-05-05T09:05:49.061Z,3.33
2023-05-05T09:08:51.897Z,3.72
2023-05-05T09:11:57.500Z,3.37
2023-05-05T09:15:03.633Z,3.20
2023-05-05T09:18:12.007Z,3.62
2023-05-05T09:21:22.213Z,3.65
2023-05-05T09:24:25.588Z,3.55
2023-05-05T09:27:28.397Z,3.45
2023-05-05T09:30:31.454Z,2.90
2023-05-05T09:33:34.178Z,3.45
2023-05-05T09:36:48.076Z,3.35
2023-05-05T09:39:55.534Z,3.85
2023-05-05T09:43:02.572Z,2.95
2023-05-05T09:46:07.510Z,3.78
2023-05-05T09:49:18.219Z,3.37
2023-05-05T09:52:24.801Z,3.40
2023-05-05T09:55:33.767Z,3.87
2023-05-05T09:58:36.648Z,4.07
2023-05-05T10:01:39.771Z,3.20
2023-05-05T10:04:42.898Z,3.53
2023-05-05T10:07:47.852Z,3.87
2023-05-05T10:10:53.903Z,3.70
2023-05-05T10:13:57.879Z,3.62
2023-05-05T10:17:01.714Z,3.42
2023-05-05T10:20:07.590Z,3.30
2023-05-05T10:23:15.359Z,3.28
2023-05-05T10:26:20.312Z,3.50
2023-05-05T10:29:47.110Z,2.92
2023-05-05T10:33:30.175Z,2.20
2023-05-05T10:36:34.666Z,2.42
2023-05-05T10:39:38.215Z,2.00
2023-05-05T10:42:41.821Z,2.67
2023-05-05T10:45:47.567Z,3.03
2023-05-05T10:49:14.890Z,2.40
2023-05-05T10:52:28.581Z,2.62
2023-05-05T10:56:08.768Z,2.60
2023-05-05T10:59:37.954Z,2.85
2023-05-05T11:02:42.048Z,3.08
2023-05-05T11:06:06.169Z,2.75
2023-05-05T11:09:28.614Z,2.35
2023-05-05T11:12:32.948Z,2.85
2023-05-05T11:15:38.002Z,3.20
2023-05-05T11:18:44.486Z,2.85
2023-05-05T11:22:01.864Z,2.80
2023-05-05T11:25:36.142Z,2.45
2023-05-05T11:28:56.558Z,2.60
2023-05-05T11:32:15.998Z,2.47
2023-05-05T11:35:18.956Z,3.25
2023-05-05T11:38:45.399Z,2.83
2023-05-05T11:42:08.118Z,3.03
2023-05-05T11:45:24.267Z,3.15
2023-05-05T11:48:27.936Z,3.00
2023-05-05T11:51:31.395Z,3.03
2023-05-05T11:54:49.099Z,3.35
2023-05-05T11:57:52.105Z,3.30
2023-05-05T12:00:55.280Z,3.40
2023-05-05T12:04:00.938Z,3.05
2023-05-05T12:07:03.821Z,3.37
2023-05-05T12:10:07.303Z,3.05
2023-05-05T12:13:19.610Z,3.20
2023-05-05T12:16:22.725Z,3.20
2023-05-05T12:19:30.120Z,2.80
2023-05-05T12:22:33.079Z,2.70
2023-05-05T12:25:38.087Z,2.30
2023-05-05T12:28:46.591Z,2.30
2023-05-05T12:31:49.322Z,2.50
2023-05-05T12:34:54.498Z,2.80
2023-05-05T12:37:58.368Z,3.00
2023-05-05T12:41:01.198Z,3.10
2023-05-05T12:44:04.376Z,2.90
2023-05-05T12:47:07.509Z,2.87
2023-05-05T12:50:10.564Z,2.95
2023-05-05T12:53:21.938Z,3.00
2023-05-05T12:56:31.335Z,2.92
2023-05-05T12:59:34.948Z,2.65
2023-05-05T13:02:37.537Z,2.60
2023-05-05T13:05:41.215Z,2.87
2023-05-05T13:08:43.967Z,3.20
2023-05-05T13:11:47.080Z,3.40
2023-05-05T13:14:49.885Z,3.28
2023-05-05T13:18:02.781Z,3.80
2023-05-05T13:21:05.546Z,3.90
2023-05-05T13:24:23.701Z,3.30
2023-05-05T13:27:31.481Z,3.97
2023-05-05T13:30:34.353Z,3.50
2023-05-05T13:33:36.972Z,3.70
2023-05-05T13:36:39.865Z,4.18
2023-05-05T13:39:42.793Z,3.95
2023-05-05T13:42:46.261Z,3.40
2023-05-05T13:45:48.934Z,3.33
2023-05-05T13:48:56.038Z,2.90
2023-05-05T13:51:59.360Z,2.83
2023-05-05T13:55:02.778Z,3.40
2023-05-05T13:58:05.401Z,3.00
2023-05-05T14:01:08.325Z,3.28
2023-05-05T14:04:11.460Z,3.10
2023-05-05T14:07:14.125Z,3.37
2023-05-05T14:10:16.878Z,3.40
2023-05-05T14:13:19.518Z,3.28
2023-05-05T14:16:22.716Z,3.10
2023-05-05T14:19:28.393Z,3.15
2023-05-05T14:22:33.258Z,2.97
2023-05-05T14:25:36.142Z,2.37
2023-05-05T14:28:39.126Z,3.00
2023-05-05T14:31:41.871Z,3.45
2023-05-05T14:34:45.286Z,3.33
2023-05-05T14:37:48.099Z,3.22
2023-05-05T14:40:51.150Z,3.30
2023-05-05T14:43:53.875Z,5.43
2023-05-05T14:46:57.301Z,3.00
2023-05-05T14:50:00.257Z,2.90
2023-05-05T14:53:03.324Z,3.00
2023-05-05T14:56:06.932Z,3.47
2023-05-05T14:59:10.185Z,3.40
2023-05-05T15:02:16.174Z,3.15
2023-05-05T15:05:19.188Z,2.90
2023-05-05T15:08:22.149Z,2.87
2023-05-05T15:11:25.065Z,3.25
2023-05-05T15:14:30.135Z,2.75
2023-05-05T15:17:37.692Z,2.97
2023-05-05T15:20:40.368Z,3.35
2023-05-05T15:23:43.460Z,2.80
2023-05-05T15:26:46.198Z,3.60
2023-05-05T15:29:49.395Z,2.90
2023-05-05T15:32:52.090Z,2.70
2023-05-05T15:35:54.946Z,3.00
2023-05-05T15:38:57.460Z,2.78
2023-05-05T15:42:03.674Z,2.85
2023-05-05T15:45:08.204Z,2.42
2023-05-05T15:48:11.138Z,2.70
2023-05-05T15:51:13.881Z,2.40
2023-05-05T15:54:16.964Z,3.10
2023-05-05T15:57:19.552Z,2.78
2023-05-05T16:00:22.791Z,2.83
2023-05-05T16:03:25.656Z,2.92
2023-05-05T16:06:28.450Z,2.67
2023-05-05T16:09:31.567Z,2.60
2023-05-05T16:12:34.112Z,2.50
2023-05-05T16:15:36.972Z,2.62
2023-05-05T16:18:39.870Z,2.83
2023-05-05T16:21:43.165Z,3.08
2023-05-05T16:24:45.905Z,2.60
2023-05-05T16:27:48.837Z,2.55
2023-05-05T16:30:51.455Z,2.45
2023-05-05T16:33:54.271Z,2.62
2023-05-05T16:36:56.895Z,2.60
2023-05-05T16:40:01.342Z,2.42
2023-05-05T16:43:04.359Z,2.90
2023-05-05T16:46:07.323Z,3.17
2023-05-05T16:49:10.056Z,2.78
2023-05-05T16:52:13.248Z,2.97
2023-05-05T16:55:15.977Z,2.75
2023-05-05T16:58:28.199Z,2.85
2023-05-05T17:01:32.712Z,2.92
2023-05-05T17:04:35.879Z,3.15
2023-05-05T17:07:38.450Z,2.92
2023-05-05T17:10:42.371Z,2.60
2023-05-05T17:13:44.894Z,2.45
2023-05-05T17:16:47.742Z,2.65
2023-05-05T17:19:50.295Z,2.95
2023-05-05T17:22:53.173Z,2.70
2023-05-05T17:25:55.792Z,2.85
2023-05-05T17:28:58.643Z,2.65
2023-05-05T17:32:01.577Z,2.85
2023-05-05T17:35:04.696Z,3.25
2023-05-05T17:38:07.292Z,3.30
2023-05-05T17:41:10.220Z,2.90
2023-05-05T17:44:13.119Z,3.10
2023-05-05T17:47:15.974Z,2.83
2023-05-05T17:50:18.852Z,2.70
2023-05-05T17:53:22.465Z,2.90
2023-05-05T17:56:25.792Z,2.80
2023-05-05T17:59:28.711Z,2.80
2023-05-05T18:02:31.525Z,2.42
2023-05-05T18:05:35.309Z,2.67
2023-05-05T18:08:38.276Z,2.50
2023-05-05T18:11:42.183Z,3.10
2023-05-05T18:14:44.807Z,2.90
2023-05-05T18:17:47.613Z,2.95
2023-05-05T18:20:50.166Z,3.00
2023-05-05T18:23:57.328Z,2.90
2023-05-05T18:27:07.496Z,2.78
2023-05-05T18:30:11.058Z,2.85
2023-05-05T18:33:13.640Z,3.03
2023-05-05T18:36:16.651Z,3.25
2023-05-05T18:39:19.216Z,3.17
2023-05-05T18:42:22.539Z,3.70
2023-05-05T18:45:25.309Z,3.70
2023-05-05T18:48:29.235Z,3.42
2023-05-05T18:51:32.350Z,3.85
2023-05-05T18:54:37.478Z,3.67
2023-05-05T18:57:43.441Z,3.72
2023-05-05T19:00:46.361Z,3.20
2023-05-05T19:03:49.814Z,4.28
2023-05-05T19:06:52.846Z,3.85
2023-05-05T19:09:55.545Z,4.07
2023-05-05T19:12:59.119Z,4.37
2023-05-05T19:16:02.567Z,4.00
2023-05-05T19:19:05.588Z,4.35
2023-05-05T19:22:08.133Z,4.28
2023-05-05T19:25:11.434Z,4.20
2023-05-05T19:28:14.327Z,3.95
2023-05-05T19:31:17.126Z,3.97
2023-05-05T19:34:20.121Z,4.43
2023-05-05T19:37:23.650Z,4.57
2023-05-05T19:40:26.128Z,4.47
2023-05-05T19:43:29.198Z,4.37
2023-05-05T19:46:32.195Z,4.43
2023-05-05T19:49:36.236Z,4.28
2023-05-05T19:52:41.328Z,4.40
2023-05-05T19:55:44.479Z,4.85
2023-05-05T19:59:00.771Z,4.32
2023-05-05T20:02:03.931Z,4.65
2023-05-05T20:05:07.093Z,4.07
2023-05-05T20:08:09.649Z,4.80
2023-05-05T20:11:14.494Z,4.72
2023-05-05T20:14:17.141Z,4.65
2023-05-05T20:17:21.410Z,4.75
2023-05-05T20:20:25.417Z,4.82
2023-05-05T20:23:29.007Z,4.70
2023-05-05T20:26:31.857Z,4.87
2023-05-05T20:29:34.724Z,5.00
2023-05-05T20:32:37.306Z,5.10
2023-05-05T20:35:40.399Z,4.70
2023-05-05T20:38:43.533Z,5.20
2023-05-05T20:41:46.694Z,5.22
2023-05-05T20:44:49.600Z,5.35
2023-05-05T20:47:52.468Z,5.28
2023-05-05T20:50:55.516Z,5.72
2023-05-05T20:53:59.217Z,5.62
2023-05-05T20:57:06.859Z,5.72
2023-05-05T21:00:10.420Z,6.05
2023-05-05T21:03:13.626Z,6.05
2023-05-05T21:06:17.283Z,5.97
2023-05-05T21:09:21.538Z,6.45
2023-05-05T21:12:24.383Z,6.47
2023-05-05T21:15:27.197Z,6.10
2023-05-05T21:18:30.118Z,6.20
2023-05-05T21:21:33.056Z,6.12
2023-05-05T21:24:38.388Z,6.22
2023-05-05T21:27:41.229Z,5.87
2023-05-05T21:30:45.276Z,5.70
2023-05-05T21:33:50.930Z,6.20
2023-05-05T21:36:53.696Z,6.35
2023-05-05T21:39:56.267Z,5.82
2023-05-05T21:42:59.184Z,6.40
2023-05-05T21:46:05.684Z,6.15
2023-05-05T21:49:13.905Z,5.93
2023-05-05T21:52:17.101Z,6.05
2023-05-05T21:55:20.150Z,5.90
2023-05-05T21:58:24.767Z,6.10
2023-05-05T22:01:28.308Z,6.93
2023-05-05T22:04:31.272Z,6.60
2023-05-05T22:07:33.849Z,6.40
2023-05-05T22:10:36.701Z,6.20
2023-05-05T22:13:39.529Z,7.70
2023-05-05T22:16:42.795Z,6.80
2023-05-05T22:19:45.541Z,6.70
2023-05-05T22:22:48.455Z,6.78
2023-05-05T22:25:50.928Z,6.45
2023-05-05T22:28:53.664Z,6.18
2023-05-05T22:31:56.352Z,6.25
2023-05-05T22:34:59.583Z,6.45
2023-05-05T22:38:02.117Z,6.85
2023-05-05T22:41:06.552Z,6.00
2023-05-05T22:44:09.119Z,6.32
2023-05-05T22:47:13.198Z,6.95
2023-05-05T22:50:15.969Z,6.00
2023-05-05T22:53:19.092Z,6.32
2023-05-05T22:56:21.737Z,6.22
2023-05-05T22:59:25.137Z,7.00
2023-05-05T23:02:28.277Z,7.30
2023-05-05T23:05:31.397Z,6.78
2023-05-05T23:08:33.924Z,7.00
2023-05-05T23:11:37.020Z,7.57
2023-05-05T23:14:39.709Z,7.10
2023-05-05T23:17:42.541Z,7.32
2023-05-05T23:20:45.109Z,7.65
2023-05-05T23:23:48.567Z,7.43
2023-05-05T23:26:51.999Z,7.50
2023-05-05T23:29:54.782Z,7.55
2023-05-05T23:32:57.964Z,7.65
2023-05-05T23:36:01.022Z,7.75
2023-05-05T23:39:03.866Z,7.50
2023-05-05T23:42:06.704Z,7.03
2023-05-05T23:45:10.164Z,7.75
2023-05-05T23:48:13.331Z,8.00
2023-05-05T23:51:16.123Z,7.28
2023-05-05T23:54:18.892Z,7.80
2023-05-05T23:57:22.131Z,7.45
